Time;durP1;ratioP1;P1;durP2;ratioP2;P2;SDS_P1;SDS_P2;PMS_P1;PMS_P2;Temp;Humidity;BMP_temperature;BMP_pressure;BME280_temperature;BME280_humidity;BME280_pressure;Samples;Min_cycle;Max_cycle;Signal;HPM_P1;HPM_P2
2022/06/17 00:00:14;;;;;;;;;;;27.60;46.30;;;;;;844533;23;1169;-89
2022/06/17 00:00:35;;;;;;;;;;;27.60;44.50;;;;;;844910;23;1260;-91
2022/06/17 00:00:56;;;;;;;;;;;27.60;45.40;;;;;;844608;23;1273;-90
2022/06/17 00:01:17;;;;;;;;;;;27.60;44.40;;;;;;844706;23;1256;-90
2022/06/17 00:01:37;;;;;;;;;;;27.60;44.80;;;;;;845333;23;1305;-91
2022/06/17 00:01:58;;;;;;;;;;;27.60;46.00;;;;;;844133;23;1181;-90
2022/06/17 00:02:18;;;;;;;;;;;27.60;44.60;;;;;;840264;23;1209;-90
2022/06/17 00:02:39;;;;;;;;;;;27.60;44.70;;;;;;837356;23;1488;-89
2022/06/17 00:03:00;;;;;;;;;;;28.20;45.90;;;;;;841116;23;1177;-90
2022/06/17 00:03:22;;;;;;;;;;;27.60;45.50;;;;;;840537;23;1204;-91
2022/06/17 00:03:43;;;;;;;;;;;27.60;44.00;;;;;;840639;23;1118;-90
2022/06/17 00:04:04;;;;;;;;;;;27.60;43.90;;;;;;840740;23;1220;-90
2022/06/17 00:04:24;;;;;;;;;;;27.60;44.10;;;;;;840598;23;1174;-89
2022/06/17 00:04:47;;;;;;;;;;;27.60;44.30;;;;;;841538;23;1089;-90
2022/06/17 00:05:08;;;;;;;;;;;27.60;45.20;;;;;;845673;23;1115;-90
2022/06/17 00:05:28;;;;;;;;;;;27.60;43.90;;;;;;844828;23;1182;-90
2022/06/17 00:05:49;;;;;;;;;;;27.60;44.30;;;;;;844688;23;1169;-90
2022/06/17 00:06:11;;;;;;;;;;;27.50;44.60;;;;;;840368;23;1086;-91
2022/06/17 00:06:38;;;;;;;;;;;27.50;45.00;;;;;;840737;23;1192;-91
2022/06/17 00:07:04;;;;;;;;;;;27.60;43.90;;;;;;840650;23;1293;-91
2022/06/17 00:07:24;;;;;;;;;;;27.60;43.50;;;;;;843612;23;1240;-91
2022/06/17 00:07:45;;;;;;;;;;;27.60;45.00;;;;;;847894;23;1291;-90
2022/06/17 00:08:10;;;;;;;;;;;27.60;44.20;;;;;;848720;23;1278;-91
2022/06/17 00:08:36;;;;;;;;;;;27.50;44.70;;;;;;845295;23;1266;-91
2022/06/17 00:08:57;;;;;;;;;;;27.60;45.60;;;;;;848280;23;1310;-91
2022/06/17 00:09:19;;;;;;;;;;;27.60;45.20;;;;;;844666;23;1318;-91
2022/06/17 00:09:40;;;;;;;;;;;27.50;45.50;;;;;;844238;23;1190;-93
2022/06/17 00:10:00;;;;;;;;;;;27.60;46.40;;;;;;840870;23;1313;-92
2022/06/17 00:10:22;;;;;;;;;;;27.60;45.60;;;;;;836412;23;1215;-91
2022/06/17 00:10:44;;;;;;;;;;;27.50;47.00;;;;;;837689;23;1456;-91
2022/06/17 00:11:09;;;;;;;;;;;27.60;47.50;;;;;;842017;23;1236;-90
2022/06/17 00:11:35;;;;;;;;;;;27.60;46.40;;;;;;840762;23;1200;-92
2022/06/17 00:11:55;;;;;;;;;;;27.60;45.70;;;;;;843441;23;1237;-89
2022/06/17 00:12:16;;;;;;;;;;;27.60;47.00;;;;;;844744;23;1224;-89
2022/06/17 00:12:36;;;;;;;;;;;27.60;46.50;;;;;;844616;23;1444;-91
2022/06/17 00:12:57;;;;;;;;;;;27.60;45.50;;;;;;844828;23;1268;-91
2022/06/17 00:13:18;;;;;;;;;;;27.60;46.10;;;;;;845667;23;1265;-89
2022/06/17 00:13:39;;;;;;;;;;;27.60;45.80;;;;;;845269;23;1192;-91
2022/06/17 00:14:00;;;;;;;;;;;27.60;46.80;;;;;;848246;23;1303;-91
2022/06/17 00:14:22;;;;;;;;;;;27.60;46.30;;;;;;844483;23;1161;-91
2022/06/17 00:15:22;;;;;;;;;;;27.60;45.50;;;;;;844940;23;604;-89
2022/06/17 00:15:42;;;;;;;;;;;27.60;45.10;;;;;;844552;23;1181;-91
2022/06/17 00:16:04;;;;;;;;;;;27.70;44.90;;;;;;845094;23;1195;-91
2022/06/17 00:16:25;;;;;;;;;;;27.60;45.60;;;;;;848531;23;1225;-89
2022/06/17 00:16:46;;;;;;;;;;;27.60;45.00;;;;;;844760;23;1296;-89
2022/06/17 00:17:07;;;;;;;;;;;27.60;45.70;;;;;;844766;23;1120;-90
2022/06/17 00:17:28;;;;;;;;;;;27.50;45.60;;;;;;845631;23;1270;-89
2022/06/17 00:17:58;;;;;;;;;;;27.50;45.80;;;;;;844719;23;1232;-91
2022/06/17 00:18:19;;;;;;;;;;;27.50;46.40;;;;;;844676;23;1452;-91
2022/06/17 00:18:40;;;;;;;;;;;27.60;44.50;;;;;;840725;23;1311;-91
2022/06/17 00:19:01;;;;;;;;;;;27.60;44.10;;;;;;840838;23;1324;-89
2022/06/17 00:19:21;;;;;;;;;;;27.60;46.10;;;;;;836766;23;1195;-91
2022/06/17 00:19:42;;;;;;;;;;;27.60;44.60;;;;;;839109;23;1893;-91
2022/06/17 00:20:06;;;;;;;;;;;27.60;45.50;;;;;;845602;23;1447;-90
2022/06/17 00:20:27;;;;;;;;;;;27.60;44.50;;;;;;848692;23;1156;-90
2022/06/17 00:20:48;;;;;;;;;;;27.60;46.10;;;;;;848627;23;1341;-90
2022/06/17 00:21:26;;;;;;;;;;;27.60;44.60;;;;;;847595;23;889;-91
2022/06/17 00:21:48;;;;;;;;;;;27.70;43.70;;;;;;845152;23;1350;-89
2022/06/17 00:22:09;;;;;;;;;;;27.60;44.10;;;;;;848759;23;1089;-89
2022/06/17 00:22:30;;;;;;;;;;;27.60;45.40;;;;;;848912;23;1284;-89
2022/06/17 00:22:50;;;;;;;;;;;27.60;44.90;;;;;;852759;23;1218;-90
2022/06/17 00:23:15;;;;;;;;;;;27.60;45.40;;;;;;852807;23;1316;-89
2022/06/17 00:23:35;;;;;;;;;;;27.60;44.30;;;;;;852706;23;1177;-91
2022/06/17 00:23:56;;;;;;;;;;;27.60;44.60;;;;;;852989;23;1337;-91
2022/06/17 00:24:20;;;;;;;;;;;27.60;45.80;;;;;;847549;23;1273;-90
2022/06/17 00:24:40;;;;;;;;;;;27.60;44.50;;;;;;844602;23;1176;-90
2022/06/17 00:25:01;;;;;;;;;;;27.60;44.10;;;;;;842832;23;1244;-90
2022/06/17 00:25:48;;;;;;;;;;;27.70;45.00;;;;;;844612;23;1185;-89
2022/06/17 00:26:09;;;;;;;;;;;27.70;43.60;;;;;;842341;23;1336;-90
2022/06/17 00:26:30;;;;;;;;;;;27.60;43.80;;;;;;844690;23;1176;-91
2022/06/17 00:26:51;;;;;;;;;;;27.60;44.10;;;;;;844662;23;1434;-90
2022/06/17 00:27:12;;;;;;;;;;;27.60;43.20;;;;;;841030;23;1256;-91
2022/06/17 00:27:32;;;;;;;;;;;27.70;43.60;;;;;;840540;23;1313;-91
2022/06/17 00:27:54;;;;;;;;;;;27.60;45.20;;;;;;840048;23;1288;-90
2022/06/17 00:28:17;;;;;;;;;;;27.60;43.90;;;;;;833542;23;1245;-90
2022/06/17 00:28:38;;;;;;;;;;;27.70;44.50;;;;;;833943;23;1312;-89
2022/06/17 00:28:58;;;;;;;;;;;27.70;45.00;;;;;;837832;23;1364;-87
2022/06/17 00:29:20;;;;;;;;;;;27.60;45.80;;;;;;844712;23;1260;-90
2022/06/17 00:29:40;;;;;;;;;;;27.60;43.90;;;;;;846065;23;1548;-88
2022/06/17 00:30:01;;;;;;;;;;;27.90;45.40;;;;;;847553;23;1438;-87
2022/06/17 00:30:24;;;;;;;;;;;27.60;45.50;;;;;;845141;23;1237;-88
2022/06/17 00:30:46;;;;;;;;;;;27.70;43.90;;;;;;851905;23;1265;-90
2022/06/17 00:31:07;;;;;;;;;;;27.60;43.70;;;;;;851394;23;1188;-91
2022/06/17 00:31:27;;;;;;;;;;;27.60;45.00;;;;;;843550;23;1261;-91
2022/06/17 00:31:49;;;;;;;;;;;27.60;45.30;;;;;;840702;23;1280;-90
2022/06/17 00:32:09;;;;;;;;;;;27.60;44.10;;;;;;838181;23;1285;-90
2022/06/17 00:32:30;;;;;;;;;;;27.60;45.10;;;;;;840795;23;1203;-92
2022/06/17 00:33:08;;;;;;;;;;;27.60;44.80;;;;;;840777;23;1513;-91
2022/06/17 00:33:29;;;;;;;;;;;27.70;43.50;;;;;;840918;23;1212;-91
2022/06/17 00:33:49;;;;;;;;;;;27.60;44.60;;;;;;840804;23;1274;-90
2022/06/17 00:34:10;;;;;;;;;;;27.60;44.20;;;;;;840962;23;1164;-92
2022/06/17 00:34:31;;;;;;;;;;;27.60;45.40;;;;;;841035;23;1190;-92
2022/06/17 00:34:51;;;;;;;;;;;27.70;45.50;;;;;;840863;23;1221;-91
2022/06/17 00:35:12;;;;;;;;;;;27.60;44.30;;;;;;840893;23;1344;-91
2022/06/17 00:35:37;;;;;;;;;;;27.60;43.70;;;;;;840952;23;1217;-91
2022/06/17 00:35:58;;;;;;;;;;;27.80;43.20;;;;;;842377;23;1229;-89
2022/06/17 00:36:19;;;;;;;;;;;27.60;44.40;;;;;;840152;23;1146;-90
2022/06/17 00:36:40;;;;;;;;;;;27.60;46.30;;;;;;840730;23;1173;-90
2022/06/17 00:37:01;;;;;;;;;;;27.60;43.60;;;;;;840636;23;1427;-90
2022/06/17 00:37:22;;;;;;;;;;;27.60;43.80;;;;;;842287;23;1379;-90
2022/06/17 00:37:43;;;;;;;;;;;27.60;45.10;;;;;;844683;23;1228;-90
2022/06/17 00:38:04;;;;;;;;;;;27.60;44.80;;;;;;844336;23;1390;-91
2022/06/17 00:38:26;;;;;;;;;;;27.70;43.40;;;;;;843820;23;1246;-91
2022/06/17 00:38:46;;;;;;;;;;;27.60;43.80;;;;;;844626;23;1347;-90
2022/06/17 00:39:31;;;;;;;;;;;27.60;45.50;;;;;;843879;23;1260;-91
2022/06/17 00:39:52;;;;;;;;;;;27.60;42.80;;;;;;850088;23;1926;-91
2022/06/17 00:40:17;;;;;;;;;;;27.60;46.50;;;;;;852741;23;1157;-90
2022/06/17 00:40:38;;;;;;;;;;;27.60;43.40;;;;;;850805;23;1274;-91
2022/06/17 00:41:06;;;;;;;;;;;27.60;44.30;;;;;;850406;23;1305;-91
2022/06/17 00:41:29;;;;;;;;;;;27.70;43.60;;;;;;852977;23;1195;-91
2022/06/17 00:41:54;;;;;;;;;;;27.60;43.50;;;;;;845165;23;1289;-92
2022/06/17 00:42:18;;;;;;;;;;;27.70;43.60;;;;;;844509;23;1228;-91
2022/06/17 00:42:39;;;;;;;;;;;27.60;43.70;;;;;;844766;23;1193;-92
2022/06/17 00:43:04;;;;;;;;;;;27.70;43.90;;;;;;844661;23;1305;-93
2022/06/17 00:43:34;;;;;;;;;;;27.60;43.30;;;;;;843925;23;1259;-88
2022/06/17 00:43:55;;;;;;;;;;;27.60;43.20;;;;;;844785;23;1210;-90
2022/06/17 00:44:35;;;;;;;;;;;27.60;45.90;;;;;;844700;23;1292;-91
2022/06/17 00:45:02;;;;;;;;;;;27.60;43.40;;;;;;848774;23;1251;-90
2022/06/17 00:45:25;;;;;;;;;;;27.60;43.50;;;;;;841390;23;1358;-89
2022/06/17 00:46:05;;;;;;;;;;;27.60;43.20;;;;;;840783;23;795;-91
2022/06/17 00:46:45;;;;;;;;;;;27.60;43.10;;;;;;844973;23;1384;-91
2022/06/17 00:47:21;;;;;;;;;;;27.60;43.70;;;;;;844251;23;1174;-92
2022/06/17 00:47:49;;;;;;;;;;;27.30;42.90;;;;;;848714;23;1255;-92
2022/06/17 00:48:12;;;;;;;;;;;27.60;43.10;;;;;;848757;23;1193;-91
2022/06/17 00:48:36;;;;;;;;;;;27.60;42.90;;;;;;844781;23;1201;-92
2022/06/17 00:49:14;;;;;;;;;;;27.60;43.00;;;;;;844651;23;1318;-91
2022/06/17 00:50:06;;;;;;;;;;;27.60;43.10;;;;;;840635;23;1217;-91
2022/06/17 00:50:47;;;;;;;;;;;27.60;42.70;;;;;;835097;23;1344;-91
2022/06/17 00:51:12;;;;;;;;;;;26.50;42.00;;;;;;828523;23;1237;-91
2022/06/17 00:51:35;;;;;;;;;;;27.60;43.10;;;;;;828783;23;1338;-91
2022/06/17 00:51:59;;;;;;;;;;;27.60;43.10;;;;;;824959;24;1203;-91
2022/06/17 00:52:29;;;;;;;;;;;27.60;43.20;;;;;;824684;24;1244;-91
2022/06/17 00:52:49;;;;;;;;;;;27.60;42.60;;;;;;824764;24;1171;-90
2022/06/17 00:53:17;;;;;;;;;;;26.10;43.40;;;;;;824825;24;1316;-91
2022/06/17 00:53:41;;;;;;;;;;;27.50;42.60;;;;;;824743;23;1349;-90
2022/06/17 00:54:06;;;;;;;;;;;27.60;43.20;;;;;;828420;23;1313;-91
2022/06/17 00:54:47;;;;;;;;;;;27.50;43.00;;;;;;824888;24;1231;-90
2022/06/17 00:55:20;;;;;;;;;;;27.50;43.40;;;;;;824513;24;1298;-90
2022/06/17 00:56:01;;;;;;;;;;;27.50;42.80;;;;;;824764;24;1308;-92
2022/06/17 00:56:27;;;;;;;;;;;27.50;42.90;;;;;;823347;24;1300;-92
2022/06/17 00:56:47;;;;;;;;;;;27.60;43.00;;;;;;824716;24;1266;-91
2022/06/17 00:57:20;;;;;;;;;;;27.50;43.50;;;;;;824852;24;1304;-92
2022/06/17 00:57:41;;;;;;;;;;;27.50;42.90;;;;;;824738;24;1221;-91
2022/06/17 00:58:07;;;;;;;;;;;27.50;43.20;;;;;;821067;24;1336;-90
2022/06/17 00:58:32;;;;;;;;;;;27.70;43.90;;;;;;821076;24;1279;-92
2022/06/17 00:59:07;;;;;;;;;;;27.50;43.10;;;;;;821635;24;1322;-91
2022/06/17 00:59:27;;;;;;;;;;;27.50;43.10;;;;;;825006;24;1250;-90
2022/06/17 01:00:06;;;;;;;;;;;27.50;44.40;;;;;;821774;24;1939;-89
2022/06/17 01:00:27;;;;;;;;;;;27.50;43.20;;;;;;821593;24;1289;-90
2022/06/17 01:00:52;;;;;;;;;;;27.50;43.10;;;;;;820965;24;1283;-89
2022/06/17 01:01:12;;;;;;;;;;;27.50;43.80;;;;;;820992;24;1215;-91
2022/06/17 01:01:46;;;;;;;;;;;27.50;43.10;;;;;;821113;24;1216;-91
2022/06/17 01:02:07;;;;;;;;;;;27.50;43.10;;;;;;824913;23;1424;-91
2022/06/17 01:02:32;;;;;;;;;;;27.50;43.80;;;;;;828802;23;1280;-90
2022/06/17 01:02:54;;;;;;;;;;;27.50;43.20;;;;;;828660;23;1285;-91
2022/06/17 01:03:21;;;;;;;;;;;27.50;43.50;;;;;;824489;24;1191;-89
2022/06/17 01:03:41;;;;;;;;;;;27.50;43.20;;;;;;817099;24;1253;-89
2022/06/17 01:04:02;;;;;;;;;;;27.50;45.40;;;;;;820585;24;1294;-91
2022/06/17 01:04:25;;;;;;;;;;;27.50;43.50;;;;;;820786;24;1356;-90
2022/06/17 01:04:48;;;;;;;;;;;27.50;43.00;;;;;;823095;24;1374;-90
2022/06/17 01:05:09;;;;;;;;;;;27.50;43.30;;;;;;823186;24;1233;-89
2022/06/17 01:05:34;;;;;;;;;;;27.50;43.10;;;;;;824824;24;1280;-90
2022/06/17 01:06:00;;;;;;;;;;;27.40;43.00;;;;;;828661;23;1332;-88
2022/06/17 01:06:23;;;;;;;;;;;27.50;43.20;;;;;;821690;24;1178;-90
2022/06/17 01:06:46;;;;;;;;;;;27.50;43.50;;;;;;824818;23;1224;-89
2022/06/17 01:07:11;;;;;;;;;;;27.50;43.80;;;;;;821432;24;1329;-90
2022/06/17 01:07:36;;;;;;;;;;;27.40;42.90;;;;;;824798;23;1311;-89
2022/06/17 01:07:59;;;;;;;;;;;27.50;43.30;;;;;;824821;23;1286;-89
2022/06/17 01:10:01;;;;;;;;;;;27.50;43.00;;;;;;825017;24;638;-89
2022/06/17 01:10:22;;;;;;;;;;;27.50;43.60;;;;;;824790;23;1170;-90
2022/06/17 01:10:46;;;;;;;;;;;27.50;43.90;;;;;;824815;24;1170;-88
2022/06/17 01:11:07;;;;;;;;;;;27.40;43.30;;;;;;824830;24;1304;-90
2022/06/17 01:11:29;;;;;;;;;;;25.20;41.90;;;;;;824802;24;1041;-88
2022/06/17 01:11:50;;;;;;;;;;;27.40;43.20;;;;;;824598;23;1198;-89
2022/06/17 01:12:12;;;;;;;;;;;27.40;43.30;;;;;;826098;23;1299;-88
2022/06/17 01:12:42;;;;;;;;;;;27.50;43.00;;;;;;828750;23;1350;-89
2022/06/17 01:13:04;;;;;;;;;;;27.40;42.80;;;;;;825966;23;1175;-89
2022/06/17 01:13:24;;;;;;;;;;;27.40;43.70;;;;;;824654;24;1172;-87
2022/06/17 01:13:48;;;;;;;;;;;27.40;43.70;;;;;;824265;24;1334;-87
2022/06/17 01:14:10;;;;;;;;;;;27.30;43.00;;;;;;825420;23;1263;-87
2022/06/17 01:14:33;;;;;;;;;;;27.30;43.00;;;;;;825333;23;1099;-89
2022/06/17 01:14:55;;;;;;;;;;;27.40;42.50;;;;;;824700;24;1198;-87
2022/06/17 01:15:18;;;;;;;;;;;27.40;43.20;;;;;;820830;24;1198;-88
2022/06/17 01:15:40;;;;;;;;;;;27.30;42.70;;;;;;823197;24;1274;-89
2022/06/17 01:16:01;;;;;;;;;;;27.40;42.90;;;;;;822847;24;1279;-90
2022/06/17 01:16:24;;;;;;;;;;;27.40;42.80;;;;;;820818;24;1311;-89
2022/06/17 01:16:44;;;;;;;;;;;27.40;43.60;;;;;;821044;24;1235;-91
2022/06/17 01:17:06;;;;;;;;;;;26.00;44.30;;;;;;826583;23;1292;-91
2022/06/17 01:17:26;;;;;;;;;;;27.30;43.00;;;;;;824904;24;1345;-90
2022/06/17 01:17:48;;;;;;;;;;;27.30;43.30;;;;;;823677;24;1261;-90
2022/06/17 01:18:10;;;;;;;;;;;27.40;42.70;;;;;;826246;23;1246;-88
2022/06/17 01:18:32;;;;;;;;;;;27.40;42.60;;;;;;827636;23;1166;-89
2022/06/17 01:18:54;;;;;;;;;;;27.40;43.00;;;;;;824740;24;1248;-89
2022/06/17 01:19:28;;;;;;;;;;;27.40;43.40;;;;;;824680;24;1296;-89
2022/06/17 01:19:50;;;;;;;;;;;27.30;42.40;;;;;;829010;23;1890;-89
2022/06/17 01:20:12;;;;;;;;;;;27.30;43.30;;;;;;824930;24;1295;-91
2022/06/17 01:20:33;;;;;;;;;;;27.40;42.70;;;;;;824858;24;1317;-89
2022/06/17 01:20:55;;;;;;;;;;;27.40;43.10;;;;;;828589;23;1116;-89
2022/06/17 01:21:22;;;;;;;;;;;27.30;43.10;;;;;;824900;24;1244;-89
2022/06/17 01:21:47;;;;;;;;;;;27.30;42.40;;;;;;824797;24;1207;-90
2022/06/17 01:22:13;;;;;;;;;;;27.30;43.30;;;;;;824881;24;1214;-90
2022/06/17 01:22:40;;;;;;;;;;;27.30;42.40;;;;;;825358;23;1397;-89
2022/06/17 01:23:05;;;;;;;;;;;27.30;42.40;;;;;;828179;23;1432;-91
2022/06/17 01:23:26;;;;;;;;;;;27.30;42.60;;;;;;825166;23;1159;-89
2022/06/17 01:23:48;;;;;;;;;;;27.30;43.80;;;;;;828677;23;1274;-90
2022/06/17 01:24:09;;;;;;;;;;;27.30;43.10;;;;;;824969;23;1225;-89
2022/06/17 01:24:30;;;;;;;;;;;26.30;43.40;;;;;;824842;24;1197;-89
2022/06/17 01:24:52;;;;;;;;;;;27.30;44.50;;;;;;827079;23;1201;-91
2022/06/17 01:25:17;;;;;;;;;;;27.40;43.50;;;;;;824802;23;1094;-89
2022/06/17 01:25:40;;;;;;;;;;;27.30;43.10;;;;;;827001;23;1281;-88
2022/06/17 01:26:01;;;;;;;;;;;27.40;43.30;;;;;;827009;23;1315;-90
2022/06/17 01:26:21;;;;;;;;;;;27.40;45.60;;;;;;828561;23;1260;-89
2022/06/17 01:26:42;;;;;;;;;;;27.30;46.20;;;;;;826455;23;1381;-89
2022/06/17 01:27:03;;;;;;;;;;;27.40;44.60;;;;;;823222;24;1252;-91
2022/06/17 01:27:25;;;;;;;;;;;27.30;44.60;;;;;;823881;23;1335;-90
2022/06/17 01:27:47;;;;;;;;;;;27.40;43.20;;;;;;826081;23;1272;-90
2022/06/17 01:28:15;;;;;;;;;;;27.40;43.60;;;;;;832587;23;1183;-90
2022/06/17 01:28:36;;;;;;;;;;;27.30;42.80;;;;;;834900;23;1197;-89
2022/06/17 01:28:56;;;;;;;;;;;27.40;44.50;;;;;;839167;23;1228;-91
2022/06/17 01:29:17;;;;;;;;;;;27.30;45.20;;;;;;841952;23;1204;-88
2022/06/17 01:29:39;;;;;;;;;;;27.40;45.20;;;;;;842632;23;1189;-90
2022/06/17 01:30:00;;;;;;;;;;;27.30;44.70;;;;;;844745;23;1260;-90
2022/06/17 01:30:25;;;;;;;;;;;27.40;43.70;;;;;;843885;23;1251;-92
2022/06/17 01:30:48;;;;;;;;;;;27.40;43.40;;;;;;840651;23;1328;-89
2022/06/17 01:31:09;;;;;;;;;;;27.40;43.50;;;;;;838813;23;1227;-91
2022/06/17 01:31:29;;;;;;;;;;;27.40;44.90;;;;;;843037;23;1315;-90
2022/06/17 01:31:52;;;;;;;;;;;27.40;44.30;;;;;;846851;23;1233;-92
2022/06/17 01:32:13;;;;;;;;;;;27.40;43.30;;;;;;844244;23;1348;-90
2022/06/17 01:32:40;;;;;;;;;;;27.40;43.60;;;;;;846218;23;1116;-90
2022/06/17 01:33:04;;;;;;;;;;;27.30;42.80;;;;;;844368;23;1196;-90
2022/06/17 01:33:27;;;;;;;;;;;27.40;43.70;;;;;;840809;23;1304;-90
2022/06/17 01:33:48;;;;;;;;;;;27.30;43.40;;;;;;836632;23;1193;-90
2022/06/17 01:34:11;;;;;;;;;;;27.40;43.80;;;;;;839708;23;1186;-92
2022/06/17 01:34:31;;;;;;;;;;;27.40;44.00;;;;;;840780;23;1224;-89
2022/06/17 01:34:52;;;;;;;;;;;27.40;43.60;;;;;;842490;23;1276;-91
2022/06/17 01:35:13;;;;;;;;;;;27.50;43.80;;;;;;841987;23;1212;-92
2022/06/17 01:35:35;;;;;;;;;;;27.40;43.30;;;;;;844700;23;1299;-92
2022/06/17 01:36:00;;;;;;;;;;;27.50;43.50;;;;;;843426;23;1122;-91
2022/06/17 01:36:24;;;;;;;;;;;27.50;42.70;;;;;;840617;23;1184;-90
2022/06/17 01:36:45;;;;;;;;;;;27.50;43.70;;;;;;842675;23;1241;-90
2022/06/17 01:37:06;;;;;;;;;;;27.50;43.30;;;;;;847002;23;1234;-91
2022/06/17 01:37:27;;;;;;;;;;;27.50;43.30;;;;;;844640;23;1391;-88
2022/06/17 01:37:48;;;;;;;;;;;26.90;42.90;;;;;;844706;23;1153;-90
2022/06/17 01:38:09;;;;;;;;;;;26.50;43.00;;;;;;844710;23;1252;-91
2022/06/17 01:38:30;;;;;;;;;;;27.50;44.00;;;;;;840998;23;1231;-89
2022/06/17 01:38:52;;;;;;;;;;;27.50;43.40;;;;;;841128;23;1186;-90
2022/06/17 01:39:13;;;;;;;;;;;27.50;43.00;;;;;;841634;23;1386;-90
2022/06/17 01:39:34;;;;;;;;;;;27.50;43.30;;;;;;844788;23;1370;-88
2022/06/17 01:39:56;;;;;;;;;;;27.50;45.60;;;;;;840458;23;1921;-88
2022/06/17 01:40:17;;;;;;;;;;;27.40;43.00;;;;;;836542;23;1391;-89
2022/06/17 01:40:38;;;;;;;;;;;27.40;43.50;;;;;;832630;23;1351;-90
2022/06/17 01:40:59;;;;;;;;;;;27.40;44.40;;;;;;833921;23;1178;-88
2022/06/17 01:41:23;;;;;;;;;;;27.40;43.30;;;;;;837727;23;1204;-90
2022/06/17 01:41:45;;;;;;;;;;;27.40;43.50;;;;;;841904;23;1286;-88
2022/06/17 01:42:05;;;;;;;;;;;27.50;42.60;;;;;;840529;23;1295;-90
2022/06/17 01:42:26;;;;;;;;;;;27.50;44.90;;;;;;840674;23;1357;-88
2022/06/17 01:42:48;;;;;;;;;;;27.50;43.00;;;;;;839810;23;1483;-88
2022/06/17 01:43:11;;;;;;;;;;;27.50;43.70;;;;;;838269;23;1399;-90
2022/06/17 01:43:52;;;;;;;;;;;27.50;42.80;;;;;;842748;23;1198;-88
2022/06/17 01:44:15;;;;;;;;;;;27.50;44.40;;;;;;843783;23;1272;-90
2022/06/17 01:44:37;;;;;;;;;;;27.40;43.30;;;;;;844577;23;1249;-89
2022/06/17 01:44:58;;;;;;;;;;;27.40;44.30;;;;;;844526;23;1172;-89
2022/06/17 01:45:18;;;;;;;;;;;27.50;45.00;;;;;;845692;23;1196;-88
2022/06/17 01:45:41;;;;;;;;;;;27.40;45.80;;;;;;848659;23;1465;-89
2022/06/17 01:46:03;;;;;;;;;;;27.50;42.90;;;;;;850389;23;1436;-90
2022/06/17 01:46:28;;;;;;;;;;;27.40;43.30;;;;;;847315;23;1333;-90
2022/06/17 01:46:52;;;;;;;;;;;27.50;42.50;;;;;;844633;23;1207;-90
2022/06/17 01:47:15;;;;;;;;;;;27.50;44.10;;;;;;842146;23;1201;-90
2022/06/17 01:47:38;;;;;;;;;;;27.40;42.80;;;;;;844753;23;1186;-90
2022/06/17 01:48:00;;;;;;;;;;;27.50;43.00;;;;;;844828;23;1299;-90
2022/06/17 01:48:23;;;;;;;;;;;27.50;44.30;;;;;;848103;23;1226;-90
2022/06/17 01:48:51;;;;;;;;;;;27.50;43.40;;;;;;844752;23;1293;-89
2022/06/17 01:49:11;;;;;;;;;;;27.50;42.50;;;;;;844745;23;1241;-90
2022/06/17 01:49:37;;;;;;;;;;;26.60;43.70;;;;;;841573;23;1252;-90
2022/06/17 01:50:00;;;;;;;;;;;27.50;43.20;;;;;;841104;23;1094;-88
2022/06/17 01:50:22;;;;;;;;;;;27.50;43.00;;;;;;848374;23;1201;-90
2022/06/17 01:50:43;;;;;;;;;;;27.40;44.40;;;;;;852345;23;1078;-90
2022/06/17 01:51:05;;;;;;;;;;;27.40;42.90;;;;;;848739;23;1312;-90
2022/06/17 01:51:27;;;;;;;;;;;27.50;43.10;;;;;;842150;23;1211;-88
2022/06/17 01:51:59;;;;;;;;;;;27.40;43.10;;;;;;840537;23;1425;-89
2022/06/17 01:52:29;;;;;;;;;;;27.40;42.40;;;;;;840591;23;1306;-90
2022/06/17 01:52:55;;;;;;;;;;;27.50;42.50;;;;;;841372;23;1233;-89
2022/06/17 01:53:18;;;;;;;;;;;27.50;43.00;;;;;;842378;23;1388;-89
2022/06/17 01:53:42;;;;;;;;;;;27.50;43.20;;;;;;844622;23;1204;-88
2022/06/17 01:54:06;;;;;;;;;;;27.40;43.30;;;;;;843799;23;1449;-89
2022/06/17 01:54:29;;;;;;;;;;;27.50;43.20;;;;;;840686;23;1296;-89
2022/06/17 01:54:52;;;;;;;;;;;27.50;43.00;;;;;;844137;23;1412;-89
2022/06/17 01:55:15;;;;;;;;;;;27.30;43.30;;;;;;843800;23;1194;-89
2022/06/17 01:55:37;;;;;;;;;;;27.50;43.10;;;;;;844565;23;1333;-90
2022/06/17 01:56:01;;;;;;;;;;;27.60;43.50;;;;;;840531;23;1078;-90
2022/06/17 01:56:23;;;;;;;;;;;27.50;43.30;;;;;;844655;23;1392;-89
2022/06/17 01:56:54;;;;;;;;;;;27.50;44.10;;;;;;843284;23;1217;-91
2022/06/17 01:57:18;;;;;;;;;;;27.40;45.10;;;;;;844671;23;1340;-95
2022/06/17 01:57:47;;;;;;;;;;;27.40;44.20;;;;;;844468;23;1223;-89
2022/06/17 01:58:28;;;;;;;;;;;27.50;42.60;;;;;;844829;23;1407;-88
2022/06/17 01:58:57;;;;;;;;;;;27.40;43.90;;;;;;836180;23;1117;-90
2022/06/17 01:59:21;;;;;;;;;;;27.50;43.60;;;;;;836596;23;1226;-95
2022/06/17 01:59:46;;;;;;;;;;;27.40;42.90;;;;;;836670;23;1941;-92
2022/06/17 02:00:29;;;;;;;;;;;27.50;43.60;;;;;;835530;23;1349;-92
2022/06/17 02:00:50;;;;;;;;;;;27.50;42.60;;;;;;836481;23;1163;-94
2022/06/17 02:01:14;;;;;;;;;;;27.40;43.80;;;;;;836523;23;1443;-96
2022/06/17 02:01:36;;;;;;;;;;;27.40;45.90;;;;;;832537;23;1325;-91
2022/06/17 02:01:59;;;;;;;;;;;27.40;43.70;;;;;;835229;23;1269;-94
2022/06/17 02:02:20;;;;;;;;;;;27.50;43.60;;;;;;836617;23;1497;-95
2022/06/17 02:02:41;;;;;;;;;;;27.40;43.90;;;;;;836973;23;1138;-96
2022/06/17 02:03:07;;;;;;;;;;;27.30;43.40;;;;;;838830;23;1300;-93
2022/06/17 02:03:29;;;;;;;;;;;27.40;44.00;;;;;;836490;23;1233;-89
2022/06/17 02:03:54;;;;;;;;;;;27.30;43.30;;;;;;830211;23;1182;-87
2022/06/17 02:04:26;;;;;;;;;;;27.40;43.20;;;;;;829963;23;1244;-89
2022/06/17 02:04:53;;;;;;;;;;;27.40;43.10;;;;;;832108;23;1435;-85
2022/06/17 02:05:14;;;;;;;;;;;27.50;42.90;;;;;;833400;23;735;-88
2022/06/17 02:05:35;;;;;;;;;;;27.40;43.30;;;;;;836981;23;1203;-90
2022/06/17 02:06:28;;;;;;;;;;;27.40;43.60;;;;;;836554;23;1295;-91
2022/06/17 02:06:48;;;;;;;;;;;27.30;43.00;;;;;;828647;23;1346;-90
2022/06/17 02:07:16;;;;;;;;;;;27.40;43.10;;;;;;828548;23;1292;-90
2022/06/17 02:07:42;;;;;;;;;;;27.40;43.00;;;;;;828751;23;1252;-89
2022/06/17 02:08:04;;;;;;;;;;;27.40;42.90;;;;;;829469;23;1261;-93
2022/06/17 02:08:24;;;;;;;;;;;27.40;43.00;;;;;;829389;23;1177;-90
2022/06/17 02:08:45;;;;;;;;;;;27.40;44.70;;;;;;829061;23;1190;-89
2022/06/17 02:09:05;;;;;;;;;;;27.40;44.40;;;;;;828949;23;1170;-91
2022/06/17 02:09:26;;;;;;;;;;;27.40;44.90;;;;;;829308;23;1318;-91
2022/06/17 02:09:47;;;;;;;;;;;27.30;47.70;;;;;;829652;23;1471;-92
2022/06/17 02:10:08;;;;;;;;;;;27.30;44.70;;;;;;832814;23;1287;-91
2022/06/17 02:10:30;;;;;;;;;;;27.30;44.50;;;;;;832299;23;1296;-91
2022/06/17 02:10:51;;;;;;;;;;;27.40;43.80;;;;;;831868;23;1205;-92
2022/06/17 02:11:12;;;;;;;;;;;27.40;44.20;;;;;;832569;23;1232;-91
2022/06/17 02:11:33;;;;;;;;;;;27.40;43.20;;;;;;832909;23;1293;-91
2022/06/17 02:11:54;;;;;;;;;;;27.30;43.40;;;;;;832806;23;1273;-91
2022/06/17 02:12:16;;;;;;;;;;;27.40;43.10;;;;;;831605;23;1277;-90
2022/06/17 02:12:37;;;;;;;;;;;27.40;43.30;;;;;;831626;23;1225;-90
2022/06/17 02:13:00;;;;;;;;;;;27.30;43.50;;;;;;831933;23;1353;-92
2022/06/17 02:13:20;;;;;;;;;;;27.40;43.50;;;;;;832872;23;1336;-92
2022/06/17 02:13:41;;;;;;;;;;;27.30;44.20;;;;;;832792;23;1317;-91
2022/06/17 02:14:06;;;;;;;;;;;27.30;44.80;;;;;;832809;23;1184;-90
2022/06/17 02:14:27;;;;;;;;;;;27.30;45.10;;;;;;830781;23;1229;-91
2022/06/17 02:14:48;;;;;;;;;;;27.30;43.10;;;;;;830902;23;1302;-91
2022/06/17 02:15:09;;;;;;;;;;;27.40;43.40;;;;;;831139;23;1369;-92
2022/06/17 02:15:30;;;;;;;;;;;27.40;43.70;;;;;;832545;23;1166;-91
2022/06/17 02:15:52;;;;;;;;;;;27.40;44.50;;;;;;832458;23;1218;-91
2022/06/17 02:16:13;;;;;;;;;;;27.40;44.60;;;;;;832621;23;1306;-91
2022/06/17 02:16:38;;;;;;;;;;;27.20;45.10;;;;;;831681;23;1308;-91
2022/06/17 02:16:59;;;;;;;;;;;27.30;43.10;;;;;;830865;23;1351;-92
2022/06/17 02:17:21;;;;;;;;;;;27.30;43.60;;;;;;830909;23;1174;-91
2022/06/17 02:17:44;;;;;;;;;;;27.30;43.50;;;;;;832280;23;1178;-91
2022/06/17 02:18:10;;;;;;;;;;;27.30;43.40;;;;;;832411;23;1186;-90
2022/06/17 02:18:30;;;;;;;;;;;27.30;43.40;;;;;;832628;23;1320;-92
2022/06/17 02:18:52;;;;;;;;;;;27.30;43.60;;;;;;830216;23;1443;-91
2022/06/17 02:19:13;;;;;;;;;;;27.30;43.50;;;;;;830184;23;1213;-91
2022/06/17 02:19:35;;;;;;;;;;;27.30;43.70;;;;;;830492;23;1278;-90
2022/06/17 02:19:56;;;;;;;;;;;27.20;44.10;;;;;;832420;23;1913;-89
2022/06/17 02:20:17;;;;;;;;;;;27.30;44.00;;;;;;832369;23;839;-90
2022/06/17 02:20:38;;;;;;;;;;;27.30;43.50;;;;;;832394;23;1292;-90
2022/06/17 02:21:02;;;;;;;;;;;27.30;43.90;;;;;;831652;23;1103;-90
2022/06/17 02:21:25;;;;;;;;;;;27.30;43.70;;;;;;828550;23;1309;-90
2022/06/17 02:22:01;;;;;;;;;;;27.30;43.80;;;;;;828665;23;1371;-90
2022/06/17 02:22:25;;;;;;;;;;;27.30;43.50;;;;;;828436;23;1390;-90
2022/06/17 02:22:46;;;;;;;;;;;27.30;43.20;;;;;;828634;23;1242;-89
2022/06/17 02:23:07;;;;;;;;;;;27.30;43.80;;;;;;829087;23;1427;-90
2022/06/17 02:23:28;;;;;;;;;;;27.30;43.30;;;;;;832331;23;1198;-90
2022/06/17 02:23:48;;;;;;;;;;;27.30;43.80;;;;;;828643;23;1326;-90